createdAt,value
2017-11-08T00:01:35.971Z,7.41
2017-11-08T00:04:05.636Z,7.45
2017-11-08T00:06:35.652Z,7.46
2017-11-08T00:09:07.539Z,7.43
2017-11-08T00:11:37.360Z,7.44
2017-11-08T00:14:06.596Z,7.42
2017-11-08T00:16:39.350Z,7.46
2017-11-08T00:19:08.524Z,7.52
2017-11-08T00:21:43.201Z,7.46
2017-11-08T00:24:12.933Z,7.47
2017-11-08T00:26:42.886Z,7.53
2017-11-08T00:29:12.023Z,7.48
2017-11-08T00:31:41.171Z,7.48
2017-11-08T00:34:10.254Z,7.49
2017-11-08T00:36:39.529Z,7.47
2017-11-08T00:39:08.818Z,7.37
2017-11-08T00:41:37.945Z,7.28
2017-11-08T00:44:07.592Z,7.27
2017-11-08T00:46:37.538Z,7.25
2017-11-08T00:49:06.888Z,7.18
2017-11-08T00:51:36.854Z,7.19
2017-11-08T00:54:06.291Z,7.21
2017-11-08T00:56:36.225Z,7.25
2017-11-08T00:59:06.757Z,7.18
2017-11-08T01:01:36.827Z,7.15
2017-11-08T01:04:06.114Z,7.18
2017-11-08T01:06:36.799Z,7.19
2017-11-08T01:09:06.926Z,7.16
2017-11-08T01:11:36.915Z,7.17
2017-11-08T01:14:06.242Z,7.20
2017-11-08T01:16:35.458Z,7.16
2017-11-08T01:19:04.876Z,7.19
2017-11-08T01:21:34.161Z,7.25
2017-11-08T01:24:03.475Z,7.28
2017-11-08T01:26:32.664Z,7.37
2017-11-08T01:29:02.108Z,7.39
2017-11-08T01:31:31.527Z,7.43
2017-11-08T01:34:00.668Z,7.41
2017-11-08T01:36:32.065Z,7.40
2017-11-08T01:39:01.435Z,7.41
2017-11-08T01:41:32.767Z,7.42
2017-11-08T01:44:02.017Z,7.44
2017-11-08T01:46:31.304Z,7.50
2017-11-08T01:49:01.353Z,7.60
2017-11-08T01:51:32.285Z,7.65
2017-11-08T01:54:01.596Z,7.64
2017-11-08T01:56:31.524Z,7.68
2017-11-08T01:59:00.830Z,7.76
2017-11-08T02:01:30.014Z,7.72
2017-11-08T02:03:59.776Z,7.74
2017-11-08T02:06:29.859Z,7.82
2017-11-08T02:08:59.054Z,7.86
2017-11-08T02:11:28.420Z,7.79
2017-11-08T02:13:58.354Z,7.86
2017-11-08T02:16:27.554Z,7.96
2017-11-08T02:18:59.331Z,7.96
2017-11-08T02:21:28.753Z,8.02
2017-11-08T02:23:58.216Z,7.95
2017-11-08T02:26:34.560Z,7.99
2017-11-08T02:29:03.726Z,8.08
2017-11-08T02:31:33.067Z,7.96
2017-11-08T02:34:05.870Z,7.99
2017-11-08T02:36:35.054Z,8.06
2017-11-08T02:39:04.856Z,7.97
2017-11-08T02:41:34.079Z,8.00
2017-11-08T02:44:04.096Z,8.08
2017-11-08T02:46:34.312Z,8.08
2017-11-08T02:49:04.034Z,7.99
2017-11-08T02:51:36.242Z,8.02
2017-11-08T02:54:20.039Z,8.11
2017-11-08T02:56:49.164Z,8.16
2017-11-08T02:59:19.169Z,8.15
2017-11-08T03:01:48.452Z,8.10
2017-11-08T03:04:17.567Z,8.12
2017-11-08T03:06:47.544Z,8.07
2017-11-08T03:09:17.210Z,8.15
2017-11-08T03:11:46.290Z,8.15
2017-11-08T03:14:15.365Z,8.12
2017-11-08T03:16:44.598Z,8.11
2017-11-08T03:19:13.699Z,8.12
2017-11-08T03:21:42.780Z,8.10
2017-11-08T03:24:11.930Z,8.06
2017-11-08T03:26:41.025Z,8.03
2017-11-08T03:29:10.246Z,8.02
2017-11-08T03:31:39.587Z,8.11
2017-11-08T03:34:08.692Z,8.09
2017-11-08T03:36:37.943Z,8.12
2017-11-08T03:39:09.571Z,8.18
2017-11-08T03:41:38.781Z,8.18
2017-11-08T03:44:08.734Z,8.17
2017-11-08T03:46:38.001Z,8.12
2017-11-08T03:49:07.179Z,8.02
2017-11-08T03:51:36.315Z,8.06
2017-11-08T03:54:06.544Z,8.17
2017-11-08T03:56:35.728Z,8.18
2017-11-08T03:59:04.956Z,8.22
2017-11-08T04:01:34.589Z,8.17
2017-11-08T04:04:03.777Z,8.13
2017-11-08T04:06:32.898Z,8.21
2017-11-08T04:09:02.998Z,8.20
2017-11-08T04:11:32.171Z,8.16
2017-11-08T04:14:01.520Z,8.28
2017-11-08T04:16:31.434Z,8.36
2017-11-08T04:19:01.946Z,8.31
2017-11-08T04:21:31.995Z,8.33
2017-11-08T04:24:01.234Z,8.33
2017-11-08T04:26:32.684Z,8.39
2017-11-08T04:29:04.255Z,8.31
2017-11-08T04:31:33.491Z,8.25
2017-11-08T04:34:02.809Z,8.19
2017-11-08T04:36:32.061Z,8.30
2017-11-08T04:39:01.216Z,8.33
2017-11-08T04:41:30.411Z,8.23
2017-11-08T04:43:59.698Z,8.24
2017-11-08T04:46:28.822Z,8.21
2017-11-08T04:48:57.970Z,8.32
2017-11-08T04:51:27.264Z,8.32
2017-11-08T04:53:57.127Z,8.32
2017-11-08T04:56:26.525Z,8.39
2017-11-08T04:58:55.729Z,8.46
2017-11-08T05:01:25.584Z,8.49
2017-11-08T05:03:54.678Z,8.50
2017-11-08T05:06:23.834Z,8.53
2017-11-08T05:08:52.955Z,8.48
2017-11-08T05:11:22.058Z,8.56
2017-11-08T05:13:52.342Z,8.50
2017-11-08T05:16:22.790Z,8.50
2017-11-08T05:18:51.894Z,8.48
2017-11-08T05:21:21.352Z,8.55
2017-11-08T05:23:50.433Z,8.55
2017-11-08T05:26:19.531Z,8.55
2017-11-08T05:28:50.765Z,8.45
2017-11-08T05:31:19.869Z,8.44
2017-11-08T05:33:48.966Z,8.54
2017-11-08T05:36:18.124Z,8.54
2017-11-08T05:38:47.275Z,8.55
2017-11-08T05:41:16.364Z,8.52
2017-11-08T05:43:46.243Z,8.47
2017-11-08T05:46:15.409Z,8.57
2017-11-08T05:48:44.595Z,8.61
2017-11-08T05:51:13.863Z,8.64
2017-11-08T05:53:42.981Z,8.74
2017-11-08T05:56:12.434Z,8.73
2017-11-08T05:58:42.355Z,8.79
2017-11-08T06:01:11.561Z,8.71
2017-11-08T06:03:41.826Z,8.81
2017-11-08T06:06:12.903Z,8.85
2017-11-08T06:08:42.271Z,8.81
2017-11-08T06:11:11.479Z,8.81
2017-11-08T06:13:41.532Z,8.86
2017-11-08T06:16:10.687Z,8.93
2017-11-08T06:18:39.781Z,8.88
2017-11-08T06:21:09.279Z,8.93
2017-11-08T06:23:39.470Z,8.94
2017-11-08T06:26:08.741Z,8.97
2017-11-08T06:28:38.843Z,8.93
2017-11-08T06:31:08.177Z,8.97
2017-11-08T06:33:37.863Z,8.91
2017-11-08T06:36:07.135Z,8.93
2017-11-08T06:38:36.334Z,9.03
2017-11-08T06:41:05.524Z,8.99
2017-11-08T06:43:36.370Z,8.95
2017-11-08T06:46:06.318Z,8.89
2017-11-08T06:48:35.591Z,8.92
2017-11-08T06:51:06.151Z,8.99
2017-11-08T06:53:36.525Z,8.97
2017-11-08T06:56:09.583Z,8.95
2017-11-08T06:58:38.888Z,8.93
2017-11-08T07:01:08.716Z,8.96
2017-11-08T07:03:38.447Z,9.01
2017-11-08T07:06:07.758Z,9.11
2017-11-08T07:08:37.164Z,9.12
2017-11-08T07:11:06.569Z,9.14
2017-11-08T07:13:35.704Z,9.10
2017-11-08T07:16:08.005Z,9.08
2017-11-08T07:18:37.259Z,9.09
2017-11-08T07:21:06.868Z,9.11
2017-11-08T07:23:36.261Z,9.10
2017-11-08T07:26:05.545Z,9.18
2017-11-08T07:28:35.257Z,9.26
2017-11-08T07:31:05.544Z,9.20
2017-11-08T07:33:34.814Z,9.21
2017-11-08T07:36:04.099Z,9.27
2017-11-08T07:38:33.711Z,9.28
2017-11-08T07:41:03.113Z,9.28
2017-11-08T07:43:32.525Z,9.33
2017-11-08T07:46:02.354Z,9.35
2017-11-08T07:48:31.598Z,9.38
2017-11-08T07:51:00.871Z,9.42
2017-11-08T07:53:31.221Z,9.31
2017-11-08T07:56:03.882Z,9.31
2017-11-08T07:58:37.828Z,9.20
2017-11-08T08:01:08.849Z,9.26
2017-11-08T08:03:38.684Z,9.35
2017-11-08T08:06:07.857Z,9.38
2017-11-08T08:08:41.645Z,9.54
2017-11-08T08:11:16.255Z,9.56
2017-11-08T08:13:47.863Z,9.53
2017-11-08T08:16:17.026Z,9.48
2017-11-08T08:18:46.111Z,9.54
2017-11-08T08:21:16.437Z,9.63
2017-11-08T08:23:45.582Z,9.76
2017-11-08T08:26:14.695Z,9.82
2017-11-08T08:28:44.670Z,9.93
2017-11-08T08:31:13.770Z,9.89
2017-11-08T08:33:43.818Z,9.85
2017-11-08T08:36:13.790Z,9.90
2017-11-08T08:38:42.885Z,10.02
2017-11-08T08:41:12.840Z,10.06
2017-11-08T08:43:42.884Z,10.08
2017-11-08T08:46:12.127Z,10.13
2017-11-08T08:48:41.304Z,10.15
2017-11-08T08:51:10.892Z,10.12
2017-11-08T08:53:40.759Z,10.19
2017-11-08T08:56:09.975Z,10.17
2017-11-08T08:58:39.136Z,10.14
2017-11-08T09:01:08.336Z,10.18
2017-11-08T09:03:39.669Z,10.17
2017-11-08T09:06:09.550Z,10.19
2017-11-08T09:08:38.934Z,10.29
2017-11-08T09:11:09.016Z,10.35
2017-11-08T09:13:38.796Z,10.45
2017-11-08T09:16:08.845Z,10.40
2017-11-08T09:18:40.773Z,10.44
2017-11-08T09:21:10.066Z,10.41
2017-11-08T09:23:40.842Z,10.54
2017-11-08T09:26:10.233Z,10.51
2017-11-08T09:28:46.424Z,10.55
2017-11-08T09:31:21.055Z,10.35
2017-11-08T09:33:50.631Z,10.29
2017-11-08T09:36:19.722Z,10.34
2017-11-08T09:38:49.702Z,10.45
2017-11-08T09:41:19.247Z,10.48
2017-11-08T09:43:48.396Z,10.42
2017-11-08T09:46:18.323Z,10.50
2017-11-08T09:48:48.932Z,10.54
2017-11-08T09:51:18.647Z,10.48
2017-11-08T09:53:48.745Z,10.57
2017-11-08T09:56:18.858Z,10.78
2017-11-08T09:58:48.007Z,11.18
2017-11-08T10:01:23.886Z,11.47
2017-11-08T10:03:53.037Z,11.67
2017-11-08T10:06:23.200Z,11.80
2017-11-08T10:08:52.582Z,11.93
2017-11-08T10:11:21.686Z,12.01
2017-11-08T10:13:51.773Z,12.07
2017-11-08T10:16:21.971Z,12.08
2017-11-08T10:18:51.124Z,11.93
2017-11-08T10:21:20.274Z,11.66
2017-11-08T10:23:50.520Z,11.47
2017-11-08T10:26:19.673Z,11.41
2017-11-08T10:28:48.818Z,11.40
2017-11-08T10:31:18.853Z,11.29
2017-11-08T10:33:48.078Z,11.34
2017-11-08T10:36:17.204Z,11.32
2017-11-08T10:38:46.933Z,11.40
2017-11-08T10:41:17.071Z,11.44
2017-11-08T10:43:46.953Z,11.37
2017-11-08T10:46:16.112Z,11.41
2017-11-08T10:48:45.404Z,11.52
2017-11-08T10:51:14.600Z,11.41
2017-11-08T10:53:44.753Z,11.37
2017-11-08T10:56:13.894Z,11.29
2017-11-08T10:58:43.114Z,11.33
2017-11-08T11:01:21.714Z,11.14
2017-11-08T11:03:51.621Z,11.21
2017-11-08T11:06:20.828Z,11.17
2017-11-08T11:08:50.579Z,11.16
2017-11-08T11:11:19.777Z,11.12
2017-11-08T11:13:48.921Z,11.28
2017-11-08T11:16:18.922Z,11.25
2017-11-08T11:18:48.267Z,11.47
2017-11-08T11:21:20.761Z,11.77
2017-11-08T11:23:49.978Z,11.78
2017-11-08T11:26:19.149Z,11.72
2017-11-08T11:28:49.088Z,11.69
2017-11-08T11:31:19.090Z,11.53
2017-11-08T11:33:48.965Z,11.42
2017-11-08T11:36:18.220Z,11.38
2017-11-08T11:38:47.521Z,11.56
2017-11-08T11:41:16.762Z,11.41
2017-11-08T11:43:45.969Z,11.52
2017-11-08T11:46:15.149Z,11.60
2017-11-08T11:48:50.456Z,11.76
2017-11-08T11:51:25.068Z,11.92
2017-11-08T11:53:54.339Z,11.92
2017-11-08T11:56:23.533Z,11.86
2017-11-08T11:58:53.792Z,11.76
2017-11-08T12:01:23.094Z,11.78
2017-11-08T12:03:52.397Z,11.77
2017-11-08T12:06:21.599Z,11.78
2017-11-08T12:08:51.944Z,11.66
2017-11-08T12:11:21.624Z,11.62
2017-11-08T12:13:51.953Z,11.72
2017-11-08T12:16:21.146Z,11.88
2017-11-08T12:18:50.359Z,11.95
2017-11-08T12:21:19.537Z,11.89
2017-11-08T12:23:50.319Z,12.05
2017-11-08T12:26:19.488Z,12.05
2017-11-08T12:28:48.733Z,12.15
2017-11-08T12:31:18.749Z,11.98
2017-11-08T12:33:47.993Z,12.00
2017-11-08T12:36:18.218Z,11.95
2017-11-08T12:38:47.757Z,11.92
2017-11-08T12:41:16.924Z,11.75
2017-11-08T12:43:59.066Z,11.59
2017-11-08T12:46:28.288Z,11.66
2017-11-08T12:48:58.318Z,11.62
2017-11-08T12:51:27.948Z,11.53
2017-11-08T12:53:57.462Z,11.50
2017-11-08T12:56:26.930Z,11.41
2017-11-08T12:58:56.167Z,11.33
2017-11-08T13:01:25.365Z,11.16
2017-11-08T13:03:54.546Z,11.16
2017-11-08T13:06:24.476Z,11.25
2017-11-08T13:08:55.175Z,11.21
2017-11-08T13:11:30.881Z,11.21
2017-11-08T13:14:00.984Z,11.31
2017-11-08T13:16:30.694Z,11.38
2017-11-08T13:19:00.106Z,11.30
2017-11-08T13:21:29.392Z,11.33
2017-11-08T13:23:59.082Z,11.36
2017-11-08T13:26:29.591Z,11.26
2017-11-08T13:28:58.958Z,11.18
2017-11-08T13:31:28.228Z,11.08
2017-11-08T13:33:58.084Z,11.06
2017-11-08T13:36:27.345Z,11.02
2017-11-08T13:38:58.961Z,11.08
2017-11-08T13:41:29.348Z,11.04
2017-11-08T13:43:58.625Z,11.11
2017-11-08T13:46:27.910Z,11.05
2017-11-08T13:48:58.925Z,10.99
2017-11-08T13:51:28.151Z,10.84
2017-11-08T13:53:57.472Z,10.90
2017-11-08T13:56:26.751Z,10.87
2017-11-08T13:58:55.872Z,10.78
2017-11-08T14:01:25.040Z,10.84
2017-11-08T14:03:54.242Z,10.75
2017-11-08T14:06:23.716Z,10.74
2017-11-08T14:08:52.872Z,10.79
2017-11-08T14:11:22.046Z,10.72
2017-11-08T14:13:51.184Z,10.72
2017-11-08T14:16:21.277Z,10.68
2017-11-08T14:18:51.875Z,10.67
2017-11-08T14:21:21.022Z,10.68
2017-11-08T14:23:50.157Z,10.74
2017-11-08T14:26:20.621Z,10.76
2017-11-08T14:28:49.721Z,10.74
2017-11-08T14:31:18.883Z,10.60
2017-11-08T14:33:48.879Z,10.69
2017-11-08T14:36:18.034Z,10.66
2017-11-08T14:38:47.222Z,10.61
2017-11-08T14:41:16.623Z,10.61
2017-11-08T14:43:47.252Z,10.60
2017-11-08T14:46:16.972Z,10.53
2017-11-08T14:48:48.970Z,10.57
2017-11-08T14:51:18.898Z,10.64
2017-11-08T14:54:03.201Z,10.73
2017-11-08T14:56:40.828Z,10.80
2017-11-08T14:59:11.015Z,10.89
2017-11-08T15:01:40.690Z,10.92
2017-11-08T15:04:10.057Z,10.79
2017-11-08T15:06:39.648Z,10.72
2017-11-08T15:09:09.759Z,10.58
2017-11-08T15:11:39.284Z,10.55
2017-11-08T15:14:15.008Z,10.53
2017-11-08T15:16:45.928Z,10.63
2017-11-08T15:19:15.561Z,10.76
2017-11-08T15:21:48.354Z,10.74
2017-11-08T15:24:18.551Z,10.79
2017-11-08T15:26:48.452Z,10.83
2017-11-08T15:29:17.567Z,10.78
2017-11-08T15:31:48.006Z,10.61
2017-11-08T15:37:17.861Z,10.61
2017-11-08T15:39:47.852Z,10.55
2017-11-08T15:42:17.010Z,10.48
2017-11-08T15:44:46.160Z,10.42
2017-11-08T15:47:15.869Z,10.43
2017-11-08T15:49:45.794Z,10.34
2017-11-08T15:52:15.040Z,10.24
2017-11-08T15:54:46.693Z,10.24
2017-11-08T15:57:15.871Z,10.24
2017-11-08T15:59:45.159Z,10.19
2017-11-08T16:02:19.347Z,10.19
2017-11-08T16:04:48.847Z,10.16
2017-11-08T16:07:17.995Z,10.17
2017-11-08T16:09:48.911Z,10.25
2017-11-08T16:12:18.041Z,10.30
2017-11-08T16:14:47.229Z,10.30
2017-11-08T16:17:17.216Z,10.35
2017-11-08T16:19:46.481Z,10.36
2017-11-08T16:22:15.646Z,10.23
2017-11-08T16:24:45.826Z,10.19
2017-11-08T16:27:15.090Z,10.17
2017-11-08T16:29:45.453Z,10.26
2017-11-08T16:32:21.365Z,10.32
2017-11-08T16:34:51.256Z,10.34
2017-11-08T16:37:20.411Z,10.38
2017-11-08T16:39:50.429Z,10.34
2017-11-08T16:42:20.405Z,10.32
2017-11-08T16:44:49.600Z,10.27
2017-11-08T16:47:20.120Z,10.27
2017-11-08T16:49:50.075Z,10.21
2017-11-08T16:52:19.269Z,10.17
2017-11-08T16:54:49.194Z,10.20
2017-11-08T16:57:19.072Z,10.12
2017-11-08T16:59:48.253Z,10.14
2017-11-08T17:02:17.485Z,10.22
2017-11-08T17:04:46.791Z,10.27
2017-11-08T17:07:15.974Z,10.30
2017-11-08T17:09:46.937Z,10.26
2017-11-08T17:12:16.237Z,10.29
2017-11-08T17:14:45.536Z,10.27
2017-11-08T17:17:17.565Z,10.26
2017-11-08T17:19:48.305Z,10.21
2017-11-08T17:22:19.207Z,10.25
2017-11-08T17:24:49.750Z,10.29
2017-11-08T17:27:18.889Z,10.36
2017-11-08T17:29:48.994Z,10.25
2017-11-08T17:32:18.149Z,10.20
2017-11-08T17:34:47.495Z,10.10
2017-11-08T17:37:16.711Z,10.11
2017-11-08T17:39:46.103Z,10.12
2017-11-08T17:42:15.268Z,10.15
2017-11-08T17:44:45.436Z,10.24
2017-11-08T17:47:14.622Z,10.26
2017-11-08T17:49:44.968Z,10.35
2017-11-08T17:52:15.112Z,10.45
2017-11-08T17:54:47.937Z,10.33
2017-11-08T17:57:18.396Z,10.40
2017-11-08T17:59:50.774Z,10.36
2017-11-08T18:02:19.936Z,10.31
2017-11-08T18:04:50.153Z,10.26
2017-11-08T18:07:25.336Z,10.33
2017-11-08T18:09:56.264Z,10.34
2017-11-08T18:12:25.996Z,10.35
2017-11-08T18:14:55.521Z,10.32
2017-11-08T18:17:27.913Z,10.31
2017-11-08T18:20:01.550Z,10.18
2017-11-08T18:22:33.162Z,10.23
2017-11-08T18:25:03.743Z,10.28
2017-11-08T18:27:37.591Z,10.19
2017-11-08T18:30:11.456Z,10.29
2017-11-08T18:32:43.917Z,10.29
2017-11-08T18:35:18.414Z,10.23
2017-11-08T18:37:50.127Z,10.26
2017-11-08T18:40:24.554Z,10.17
2017-11-08T18:42:55.632Z,10.16
2017-11-08T18:45:26.154Z,10.27
2017-11-08T18:47:56.304Z,10.30
2017-11-08T18:50:26.445Z,10.40
2017-11-08T18:55:36.555Z,10.43
2017-11-08T18:58:05.956Z,10.44
2017-11-08T19:00:35.490Z,10.33
2017-11-08T19:03:06.659Z,10.34
2017-11-08T19:05:37.039Z,10.37
2017-11-08T19:08:07.246Z,10.29
2017-11-08T19:10:38.315Z,10.26
2017-11-08T19:13:08.980Z,10.28
2017-11-08T19:15:39.584Z,10.27
2017-11-08T19:18:11.876Z,10.22
2017-11-08T19:20:43.508Z,10.21
2017-11-08T19:23:16.281Z,10.15
2017-11-08T19:25:45.995Z,10.24
2017-11-08T19:28:15.707Z,10.20
2017-11-08T19:30:45.042Z,10.27
2017-11-08T19:33:14.177Z,10.21
2017-11-08T19:35:48.729Z,10.25
2017-11-08T19:38:17.947Z,10.25
2017-11-08T19:40:49.597Z,10.23
2017-11-08T19:43:20.522Z,10.19
2017-11-08T19:45:49.742Z,10.13
2017-11-08T19:48:19.398Z,10.16
2017-11-08T19:50:49.014Z,10.02
2017-11-08T19:53:19.094Z,10.09
2017-11-08T19:55:49.549Z,10.03
2017-11-08T19:58:19.006Z,10.09
2017-11-08T20:00:50.635Z,10.11
2017-11-08T20:03:21.763Z,10.11
2017-11-08T20:05:51.199Z,10.12
2017-11-08T20:08:21.519Z,10.14
2017-11-08T20:10:51.980Z,10.17
2017-11-08T20:13:21.472Z,10.18
2017-11-08T20:15:52.344Z,10.23
2017-11-08T20:18:22.147Z,10.27
2017-11-08T20:20:51.977Z,10.14
2017-11-08T20:23:22.138Z,10.12
2017-11-08T20:25:52.476Z,10.11
2017-11-08T20:28:24.531Z,10.10
2017-11-08T20:30:55.322Z,10.14
2017-11-08T20:33:27.355Z,10.12
2017-11-08T20:35:57.056Z,10.14
2017-11-08T20:38:27.311Z,10.18
2017-11-08T20:40:56.841Z,10.14
2017-11-08T20:43:26.882Z,10.18
2017-11-08T20:45:57.313Z,10.13
2017-11-08T20:48:28.529Z,10.16
2017-11-08T20:50:58.831Z,10.06
2017-11-08T20:53:30.135Z,9.94
2017-11-08T20:55:59.308Z,9.91
2017-11-08T20:58:28.759Z,10.00
2017-11-08T21:00:59.194Z,10.07
2017-11-08T21:03:29.207Z,10.08
2017-11-08T21:06:01.136Z,10.10
2017-11-08T21:08:32.561Z,10.07
2017-11-08T21:11:03.919Z,9.98
2017-11-08T21:13:35.144Z,9.94
2017-11-08T21:16:04.886Z,9.93
2017-11-08T21:18:34.524Z,10.01
2017-11-08T21:21:04.517Z,9.95
2017-11-08T21:23:35.170Z,9.97
2017-11-08T21:26:04.535Z,9.97
2017-11-08T21:28:34.921Z,9.99
2017-11-08T21:31:05.468Z,9.97
2017-11-08T21:33:35.631Z,9.95
2017-11-08T21:36:05.393Z,9.92
2017-11-08T21:38:34.709Z,9.82
2017-11-08T21:41:05.448Z,9.92
2017-11-08T21:43:36.395Z,9.95
2017-11-08T21:46:05.682Z,9.90
2017-11-08T21:48:36.320Z,9.92
2017-11-08T21:51:05.954Z,9.91
2017-11-08T21:53:35.749Z,10.00
2017-11-08T21:56:05.830Z,9.93
2017-11-08T21:58:35.358Z,9.91
2017-11-08T22:01:04.889Z,9.92
2017-11-08T22:03:34.615Z,9.85
2017-11-08T22:06:04.154Z,9.89
2017-11-08T22:08:33.411Z,9.80
2017-11-08T22:11:03.556Z,9.79
2017-11-08T22:13:33.176Z,9.80
2017-11-08T22:16:03.377Z,9.78
2017-11-08T22:18:33.227Z,9.73
2017-11-08T22:21:02.548Z,9.75
2017-11-08T22:23:31.925Z,9.71
2017-11-08T22:26:01.625Z,9.78
2017-11-08T22:28:30.869Z,9.72
2017-11-08T22:31:00.858Z,9.82
2017-11-08T22:33:30.134Z,9.76
2017-11-08T22:35:59.316Z,9.82
2017-11-08T22:38:28.540Z,9.81
2017-11-08T22:40:59.964Z,9.91
2017-11-08T22:43:29.988Z,9.93
2017-11-08T22:46:00.260Z,9.97
2017-11-08T22:48:29.446Z,9.85
2017-11-08T22:50:58.569Z,9.92
2017-11-08T22:53:28.839Z,9.94
2017-11-08T22:55:58.325Z,9.92
2017-11-08T22:58:27.468Z,10.01
2017-11-08T23:00:57.048Z,10.01
2017-11-08T23:03:27.082Z,10.04
2017-11-08T23:05:56.982Z,10.06
2017-11-08T23:08:26.960Z,10.07
2017-11-08T23:10:56.562Z,10.03
2017-11-08T23:13:25.783Z,9.96
2017-11-08T23:15:55.316Z,9.97
2017-11-08T23:18:28.149Z,9.95
2017-11-08T23:20:57.662Z,9.95
2017-11-08T23:23:26.749Z,9.95
2017-11-08T23:25:56.559Z,9.95
2017-11-08T23:28:26.604Z,9.89
2017-11-08T23:30:56.631Z,9.90
2017-11-08T23:33:25.725Z,9.86
2017-11-08T23:35:56.093Z,9.87
2017-11-08T23:38:25.200Z,9.87
2017-11-08T23:40:54.919Z,9.84
2017-11-08T23:43:24.945Z,9.82
2017-11-08T23:45:54.115Z,9.80
2017-11-08T23:48:23.265Z,9.79
2017-11-08T23:50:52.434Z,9.82
2017-11-08T23:53:22.361Z,9.79
2017-11-08T23:55:55.177Z,9.78
2017-11-08T23:58:24.370Z,9.75
